< < Back
Terminal Aerodrome Forecast


Current Version              Previous Versions:   1  2  3  4  5  6  7  8  9  

Terminal Aerodrome Forecast

088
FTUS42 KTAE 201700
TAFABY
TAF
KABY 201721Z 2018/2118 VRB04KT P6SM SCT040 SCT250=

Latest METAR

655
SAUS70 KWBC 210500 RRE
MTRABY
METAR KABY 210453Z 00000KT 10SM CLR 15/13 A3002 RMK AO2 SLP163 T01500133
402610094 $


USA.gov is the U.S. government's official web portal to all federal, state and local government web resources and services.